Texarkana Regional Webb Field
KTXK : now visible

Airfield :











YOU CAN JOIN US ON...

 
LOGIN :

Register | Disclaimer

   EN    FR    IT 

 









Legend :    VFR   Marginal VFR   IFR   Intensive IFR   Very Intensive IFR
Visi :
Ceiling :
>= 8 km
>= 3000ft
5 to 8 km
1000 to 3000 ft
1500m to 5 km
500 to 1000 ft
800 to 1500m
200 to 500 ft
< 800m
< 200 ft
Symbols :   Thunderstorms  Fog  Heavy snow  Heavy precipitations  Wind > 20 kt






- Airport Elevation : 390 ft
- IATA code : TXK


KTXK - Texarkana Regional Webb Field

CURRENT METAR :
  • 051553Z 18012G17KT 10SM CLR 15/03 A3008 RMK AO2 SLP183 T01500033

EXPIRED METARs :
  • 051453Z 17008KT 10SM CLR 13/03 A3007 RMK AO2 SLP181 T01280033 51004
  • 051353Z 18007KT 10SM CLR 11/02 A3007 RMK AO2 SLP180 T01110022

TAF KTXK
Valid from the 05 at 12:00 until the 06 at 12:00 UTC


051120Z 0512/0612 16005KT P6SM SCT140 SCT250
FM051700 17012G18KT P6SM SCT250
FM060000 17010KT P6SM BKN100
FM060900 21010KT P6SM BKN025 OVC080



MET'MAP, your aeronautical weather chart ! - Copyright ORBIFLY December 2007 - Disclaimer

ORBIFLY MET'MAP TEAM :

Programming & Development : Alexandra Zaïnal
Concept & original design : Baudouin d'Aumeries
Assistance for programming : Marc-Olivier Méhu
Technical & hardware support : Manuel Goepfert

Contact : metmap@orbifly.com




SOURCES & CREDITS :

   NOAA       Earth
Advisory